createdAt,value
2023-01-30T00:02:48.282Z,-0.33
2023-01-30T00:05:51.458Z,-0.36
2023-01-30T00:08:54.306Z,-0.28
2023-01-30T00:11:57.270Z,-0.33
2023-01-30T00:15:00.112Z,-0.26
2023-01-30T00:18:03.223Z,-0.39
2023-01-30T00:21:08.537Z,-0.34
2023-01-30T00:24:11.476Z,-0.58
2023-01-30T00:27:14.419Z,-0.66
2023-01-30T00:30:17.799Z,-0.69
2023-01-30T00:33:21.759Z,-0.89
2023-01-30T00:36:27.413Z,-1.11
2023-01-30T00:39:30.284Z,-1.21
2023-01-30T00:42:52.077Z,-1.28
2023-01-30T00:46:13.840Z,-1.37
2023-01-30T00:49:17.176Z,-1.46
2023-01-30T00:52:20.369Z,-1.39
2023-01-30T00:55:23.259Z,-1.42
2023-01-30T00:58:26.611Z,-1.48
2023-01-30T01:01:29.430Z,-1.38
2023-01-30T01:04:32.286Z,-1.21
2023-01-30T01:07:35.435Z,-1.18
2023-01-30T01:10:38.668Z,-1.07
2023-01-30T01:13:41.501Z,-1.16
2023-01-30T01:16:44.304Z,-1.15
2023-01-30T01:19:47.329Z,-1.11
2023-01-30T01:22:54.548Z,-1.13
2023-01-30T01:26:01.859Z,-0.84
2023-01-30T01:29:05.831Z,-0.93
2023-01-30T01:32:08.761Z,-0.98
2023-01-30T01:35:11.853Z,-0.96
2023-01-30T01:38:14.633Z,-0.93
2023-01-30T01:41:18.556Z,-0.78
2023-01-30T01:44:25.013Z,-0.83
2023-01-30T01:47:28.628Z,-0.84
2023-01-30T01:50:42.898Z,-0.74
2023-01-30T01:54:03.525Z,-0.79
2023-01-30T01:57:14.490Z,-0.79
2023-01-30T02:00:20.705Z,-0.72
2023-01-30T02:03:26.250Z,-0.74
2023-01-30T02:06:30.175Z,-0.65
2023-01-30T02:09:33.061Z,-0.61
2023-01-30T02:12:38.265Z,-0.54
2023-01-30T02:15:41.380Z,-0.62
2023-01-30T02:18:45.593Z,-0.58
2023-01-30T02:22:32.697Z,-0.68
2023-01-30T02:25:55.658Z,-0.84
2023-01-30T02:29:04.867Z,-0.90
2023-01-30T02:32:19.798Z,-1.07
2023-01-30T02:35:42.240Z,-1.08
2023-01-30T02:38:56.805Z,-1.17
2023-01-30T02:42:21.852Z,-1.24
2023-01-30T02:45:37.062Z,-1.27
2023-01-30T02:48:46.605Z,-1.50
2023-01-30T02:51:51.551Z,-1.63
2023-01-30T02:54:54.195Z,-1.49
2023-01-30T02:57:58.433Z,-1.55
2023-01-30T03:01:21.084Z,-1.58
2023-01-30T03:05:15.133Z,-1.51
2023-01-30T03:08:35.010Z,-1.46
2023-01-30T03:12:08.866Z,-1.38
2023-01-30T03:15:22.027Z,-1.26
2023-01-30T03:18:25.662Z,-1.21
2023-01-30T03:21:28.176Z,-1.13
2023-01-30T03:24:31.544Z,-1.21
2023-01-30T03:27:35.580Z,-1.15
2023-01-30T03:30:38.856Z,-1.09
2023-01-30T03:33:42.268Z,-1.18
2023-01-30T03:36:47.275Z,-1.10
2023-01-30T03:39:51.157Z,-1.23
2023-01-30T03:42:54.318Z,-1.25
2023-01-30T03:45:57.018Z,-1.20
2023-01-30T03:49:00.249Z,-1.39
2023-01-30T03:52:02.943Z,-1.50
2023-01-30T03:55:06.647Z,-1.64
2023-01-30T03:58:09.481Z,-1.59
2023-01-30T04:01:12.712Z,-1.59
2023-01-30T04:04:16.713Z,-1.58
2023-01-30T04:07:20.278Z,-1.50
2023-01-30T04:10:26.094Z,-1.46
2023-01-30T04:13:29.016Z,-1.41
2023-01-30T04:16:32.566Z,-1.38
2023-01-30T04:19:40.627Z,-1.60
2023-01-30T04:22:43.554Z,-1.65
2023-01-30T04:25:47.064Z,-1.51
2023-01-30T04:28:51.162Z,-1.53
2023-01-30T04:31:54.096Z,-1.76
2023-01-30T04:34:57.244Z,-1.74
2023-01-30T04:38:00.087Z,-1.86
2023-01-30T04:41:03.544Z,-2.00
2023-01-30T04:44:07.397Z,-2.15
2023-01-30T04:47:11.417Z,-2.14
2023-01-30T04:50:14.383Z,-2.08
2023-01-30T04:53:18.554Z,-2.31
2023-01-30T04:56:21.459Z,-2.26
2023-01-30T04:59:24.795Z,-2.06
2023-01-30T05:02:27.685Z,-2.12
2023-01-30T05:05:30.684Z,-2.10
2023-01-30T05:08:33.498Z,-2.12
2023-01-30T05:11:36.542Z,-2.29
2023-01-30T05:14:41.388Z,-2.16
2023-01-30T05:17:44.805Z,-1.97
2023-01-30T05:20:48.013Z,-2.03
2023-01-30T05:23:52.848Z,-2.18
2023-01-30T05:26:55.673Z,-2.11
2023-01-30T05:29:58.646Z,-2.11
2023-01-30T05:33:02.484Z,-1.89
2023-01-30T05:36:06.217Z,-1.94
2023-01-30T05:39:09.756Z,-1.77
2023-01-30T05:42:12.608Z,-1.82
2023-01-30T05:45:16.767Z,-1.59
2023-01-30T05:48:19.949Z,-1.63
2023-01-30T05:51:26.314Z,-1.83
2023-01-30T05:54:29.109Z,-1.75
2023-01-30T05:57:31.896Z,-1.61
2023-01-30T06:00:34.677Z,-1.77
2023-01-30T06:03:38.601Z,-1.72
2023-01-30T06:06:41.145Z,-1.60
2023-01-30T06:09:44.229Z,-1.77
2023-01-30T06:12:46.828Z,-1.58
2023-01-30T06:15:50.067Z,-1.64
2023-01-30T06:18:52.743Z,-1.63
2023-01-30T06:21:58.315Z,-1.48
2023-01-30T06:25:00.847Z,-1.43
2023-01-30T06:28:04.198Z,-1.36
2023-01-30T06:31:08.181Z,-1.41
2023-01-30T06:34:12.076Z,-1.41
2023-01-30T06:37:14.662Z,-1.50
2023-01-30T06:40:18.129Z,-1.48
2023-01-30T06:43:20.942Z,-1.31
2023-01-30T06:46:24.148Z,-1.35
2023-01-30T06:49:27.441Z,-1.13
2023-01-30T06:52:30.601Z,-1.28
2023-01-30T06:55:35.574Z,-1.28
2023-01-30T06:58:38.858Z,-1.02
2023-01-30T07:01:41.576Z,-1.15
2023-01-30T07:04:44.773Z,-1.11
2023-01-30T07:07:47.568Z,-1.02
2023-01-30T07:10:50.763Z,-0.81
2023-01-30T07:13:53.292Z,-0.70
2023-01-30T07:16:56.461Z,-0.59
2023-01-30T07:19:59.437Z,-0.41
2023-01-30T07:23:04.300Z,-0.30
2023-01-30T07:26:06.946Z,-0.20
2023-01-30T07:29:10.446Z,0.02
2023-01-30T07:32:17.053Z,0.17
2023-01-30T07:35:21.804Z,0.19
2023-01-30T07:38:24.693Z,-0.05
2023-01-30T07:41:28.096Z,-0.17
2023-01-30T07:44:30.744Z,-0.03
2023-01-30T07:47:33.966Z,-0.02
2023-01-30T07:50:36.780Z,0.06
2023-01-30T07:53:40.113Z,0.09
2023-01-30T07:56:42.744Z,0.28
2023-01-30T07:59:45.962Z,0.44
2023-01-30T08:02:48.599Z,0.53
2023-01-30T08:05:53.707Z,0.62
2023-01-30T08:08:58.574Z,0.74
2023-01-30T08:12:01.823Z,0.98
2023-01-30T08:15:04.923Z,1.10
2023-01-30T08:18:08.167Z,1.18
2023-01-30T08:21:11.716Z,1.29
2023-01-30T08:24:15.298Z,1.39
2023-01-30T08:27:17.972Z,1.52
2023-01-30T08:30:22.638Z,1.67
2023-01-30T08:33:26.246Z,1.92
2023-01-30T08:36:29.385Z,1.95
2023-01-30T08:39:32.986Z,2.08
2023-01-30T08:42:36.659Z,2.14
2023-01-30T08:45:39.608Z,2.33
2023-01-30T08:48:50.029Z,2.46
2023-01-30T08:51:52.928Z,2.60
2023-01-30T08:54:56.226Z,2.72
2023-01-30T08:57:59.177Z,2.76
2023-01-30T09:01:05.400Z,2.80
2023-01-30T09:04:07.975Z,2.61
2023-01-30T09:07:11.161Z,2.18
2023-01-30T09:10:14.070Z,1.97
2023-01-30T09:13:17.643Z,1.77
2023-01-30T09:16:20.245Z,1.82
2023-01-30T09:19:28.236Z,1.79
2023-01-30T09:22:30.864Z,1.72
2023-01-30T09:25:34.272Z,1.87
2023-01-30T09:28:37.175Z,1.87
2023-01-30T09:31:41.562Z,1.93
2023-01-30T09:34:45.351Z,1.84
2023-01-30T09:37:53.395Z,1.99
2023-01-30T09:40:59.024Z,1.82
2023-01-30T09:44:23.890Z,1.78
2023-01-30T09:48:01.701Z,1.71
2023-01-30T09:51:11.870Z,1.44
2023-01-30T09:54:21.981Z,1.41
2023-01-30T09:57:26.182Z,1.42
2023-01-30T10:00:32.436Z,1.41
2023-01-30T10:03:42.494Z,1.25
2023-01-30T10:06:59.303Z,1.24
2023-01-30T10:10:20.973Z,1.24
2023-01-30T10:13:37.426Z,1.29
2023-01-30T10:16:55.926Z,1.24
2023-01-30T10:19:58.598Z,1.25
2023-01-30T10:23:17.363Z,1.62
2023-01-30T10:26:23.398Z,2.29
2023-01-30T10:29:33.305Z,2.45
2023-01-30T10:32:44.986Z,2.95
2023-01-30T10:36:02.685Z,2.88
2023-01-30T10:39:18.581Z,2.77
2023-01-30T10:42:29.654Z,2.75
2023-01-30T10:45:50.941Z,2.51
2023-01-30T10:49:11.521Z,2.21
2023-01-30T10:52:49.773Z,2.10
2023-01-30T10:56:00.099Z,2.08
2023-01-30T10:59:44.644Z,2.00
2023-01-30T11:03:10.610Z,1.98
2023-01-30T11:06:23.911Z,1.76
2023-01-30T11:09:47.232Z,1.82
2023-01-30T11:12:58.238Z,1.82
2023-01-30T11:16:08.057Z,1.95
2023-01-30T11:19:21.224Z,1.94
2023-01-30T11:22:27.152Z,1.84
2023-01-30T11:25:29.948Z,1.92
2023-01-30T11:28:51.315Z,2.07
2023-01-30T11:31:54.874Z,2.16
2023-01-30T11:35:06.623Z,2.23
2023-01-30T11:38:24.601Z,2.40
2023-01-30T11:41:28.278Z,2.45
2023-01-30T11:44:37.692Z,2.64
2023-01-30T11:48:00.676Z,2.71
2023-01-30T11:51:11.131Z,2.87
2023-01-30T11:54:19.611Z,2.82
2023-01-30T11:57:23.527Z,2.71
2023-01-30T12:00:37.368Z,2.71
2023-01-30T12:03:47.863Z,2.75
2023-01-30T12:07:06.318Z,2.53
2023-01-30T12:10:30.228Z,2.44
2023-01-30T12:13:38.268Z,2.62
2023-01-30T12:16:57.887Z,2.76
2023-01-30T12:20:03.732Z,2.80
2023-01-30T12:23:13.103Z,2.78
2023-01-30T12:26:18.786Z,2.76
2023-01-30T12:29:41.908Z,2.59
2023-01-30T12:32:45.340Z,2.43
2023-01-30T12:36:17.168Z,2.56
2023-01-30T12:39:25.240Z,2.67
2023-01-30T12:42:58.400Z,2.51
2023-01-30T12:46:27.071Z,2.33
2023-01-30T12:49:45.259Z,2.19
2023-01-30T12:53:00.266Z,2.10
2023-01-30T12:56:09.250Z,2.14
2023-01-30T12:59:24.525Z,2.16
2023-01-30T13:02:45.343Z,2.23
2023-01-30T13:05:56.236Z,2.16
2023-01-30T13:09:17.942Z,2.18
2023-01-30T13:12:48.617Z,2.14
2023-01-30T13:16:32.063Z,2.19
2023-01-30T13:19:51.211Z,2.36
2023-01-30T13:23:04.727Z,2.28
2023-01-30T13:26:11.814Z,2.32
2023-01-30T13:29:20.689Z,2.31
2023-01-30T13:32:48.481Z,2.35
2023-01-30T13:36:02.591Z,2.37
2023-01-30T13:39:25.779Z,2.36
2023-01-30T13:42:49.864Z,2.45
2023-01-30T13:45:56.934Z,2.44
2023-01-30T13:49:44.461Z,2.28
2023-01-30T13:53:00.920Z,2.37
2023-01-30T13:56:32.730Z,2.43
2023-01-30T13:59:57.698Z,2.40
2023-01-30T14:03:03.759Z,2.44
2023-01-30T14:06:26.811Z,2.60
2023-01-30T14:09:33.601Z,2.73
2023-01-30T14:12:46.574Z,2.76
2023-01-30T14:16:04.649Z,2.75
2023-01-30T14:19:42.273Z,2.93
2023-01-30T14:22:47.677Z,2.85
2023-01-30T14:25:53.371Z,2.77
2023-01-30T14:28:56.243Z,2.75
2023-01-30T14:31:59.412Z,2.72
2023-01-30T14:35:01.952Z,2.65
2023-01-30T14:38:13.071Z,2.62
2023-01-30T14:41:25.560Z,2.60
2023-01-30T14:44:59.956Z,2.72
2023-01-30T14:48:37.728Z,2.87
2023-01-30T14:51:42.676Z,2.63
2023-01-30T14:54:50.359Z,2.73
2023-01-30T14:58:02.818Z,2.89
2023-01-30T15:01:05.616Z,2.73
2023-01-30T15:04:16.466Z,2.58
2023-01-30T15:07:24.853Z,2.44
2023-01-30T15:10:49.938Z,2.44
2023-01-30T15:14:01.522Z,2.35
2023-01-30T15:17:37.821Z,2.40
2023-01-30T15:21:18.200Z,2.50
2023-01-30T15:24:51.586Z,2.30
2023-01-30T15:28:08.084Z,2.41
2023-01-30T15:31:15.317Z,2.46
2023-01-30T15:34:24.282Z,2.45
2023-01-30T15:37:30.477Z,2.37
2023-01-30T15:40:33.438Z,2.35
2023-01-30T15:44:21.091Z,2.52
2023-01-30T15:47:45.616Z,2.42
2023-01-30T15:50:53.881Z,2.31
2023-01-30T15:53:58.252Z,2.59
2023-01-30T15:57:02.749Z,2.53
2023-01-30T16:00:08.564Z,2.43
2023-01-30T16:03:20.535Z,2.31
2023-01-30T16:06:35.708Z,2.11
2023-01-30T16:09:38.517Z,2.15
2023-01-30T16:12:42.114Z,2.09
2023-01-30T16:15:54.539Z,2.03
2023-01-30T16:19:02.137Z,1.88
2023-01-30T16:22:15.539Z,1.78
2023-01-30T16:25:22.692Z,1.87
2023-01-30T16:28:28.442Z,1.84
2023-01-30T16:31:33.614Z,1.79
2023-01-30T16:34:38.454Z,1.67
2023-01-30T16:37:41.513Z,1.72
2023-01-30T16:40:46.438Z,1.78
2023-01-30T16:44:08.277Z,1.80
2023-01-30T16:47:28.952Z,1.91
2023-01-30T16:50:31.882Z,1.90
2023-01-30T16:53:35.087Z,2.01
2023-01-30T16:56:38.231Z,1.94
2023-01-30T16:59:41.355Z,1.87
2023-01-30T17:02:57.466Z,1.65
2023-01-30T17:06:07.468Z,1.77
2023-01-30T17:09:41.886Z,1.80
2023-01-30T17:12:49.634Z,1.79
2023-01-30T17:15:52.653Z,1.82
2023-01-30T17:18:58.249Z,1.82
2023-01-30T17:22:04.642Z,1.84
2023-01-30T17:25:32.915Z,1.78
2023-01-30T17:28:40.417Z,1.88
2023-01-30T17:31:49.963Z,2.15
2023-01-30T17:34:52.907Z,2.02
2023-01-30T17:38:04.891Z,2.03
2023-01-30T17:41:18.460Z,2.04
2023-01-30T17:44:21.493Z,2.14
2023-01-30T17:47:24.457Z,2.32
2023-01-30T17:50:28.583Z,2.54
2023-01-30T17:53:32.517Z,2.51
2023-01-30T17:56:38.442Z,2.60
2023-01-30T17:59:41.695Z,2.58
2023-01-30T18:02:44.883Z,2.64
2023-01-30T18:05:48.003Z,2.69
2023-01-30T18:08:51.695Z,2.76
2023-01-30T18:11:54.692Z,2.85
2023-01-30T18:14:58.688Z,2.95
2023-01-30T18:18:01.899Z,2.95
2023-01-30T18:21:06.245Z,3.03
2023-01-30T18:24:09.724Z,3.06
2023-01-30T18:27:13.397Z,3.13
2023-01-30T18:30:18.232Z,3.15
2023-01-30T18:33:21.439Z,3.32
2023-01-30T18:36:24.493Z,3.32
2023-01-30T18:39:27.438Z,3.47
2023-01-30T18:42:30.474Z,3.57
2023-01-30T18:45:36.020Z,3.39
2023-01-30T18:48:39.054Z,3.42
2023-01-30T18:51:42.062Z,3.41
2023-01-30T18:54:44.934Z,3.33
2023-01-30T18:57:48.328Z,3.32
2023-01-30T19:00:51.207Z,3.34
2023-01-30T19:03:56.831Z,3.34
2023-01-30T19:06:59.725Z,3.37
2023-01-30T19:10:03.698Z,3.37
2023-01-30T19:13:25.401Z,3.47
2023-01-30T19:16:30.952Z,3.45
2023-01-30T19:19:33.880Z,3.55
2023-01-30T19:22:37.143Z,3.49
2023-01-30T19:25:40.024Z,3.64
2023-01-30T19:28:44.755Z,3.59
2023-01-30T19:31:47.915Z,3.47
2023-01-30T19:34:51.144Z,3.45
2023-01-30T19:37:57.525Z,3.51
2023-01-30T19:41:00.572Z,3.60
2023-01-30T19:44:06.898Z,3.64
2023-01-30T19:47:10.155Z,3.56
2023-01-30T19:50:13.480Z,3.69
2023-01-30T19:53:16.475Z,3.74
2023-01-30T19:56:21.859Z,3.86
2023-01-30T19:59:24.787Z,3.89
2023-01-30T20:02:30.008Z,3.93
2023-01-30T20:05:33.555Z,3.90
2023-01-30T20:08:37.356Z,3.98
2023-01-30T20:11:43.641Z,3.93
2023-01-30T20:14:46.389Z,3.86
2023-01-30T20:17:49.611Z,3.90
2023-01-30T20:20:52.594Z,3.93
2023-01-30T20:23:56.718Z,4.02
2023-01-30T20:26:59.690Z,4.05
2023-01-30T20:30:03.006Z,4.03
2023-01-30T20:33:06.003Z,4.00
2023-01-30T20:36:12.033Z,3.97
2023-01-30T20:39:16.951Z,4.02
2023-01-30T20:42:20.067Z,4.04
2023-01-30T20:45:22.631Z,4.10
2023-01-30T20:48:25.739Z,4.08
2023-01-30T20:51:30.694Z,4.04
2023-01-30T20:54:37.716Z,4.08
2023-01-30T20:57:43.158Z,4.05
2023-01-30T21:00:46.445Z,4.00
2023-01-30T21:03:51.436Z,3.94
2023-01-30T21:06:54.778Z,3.93
2023-01-30T21:09:57.364Z,3.98
2023-01-30T21:13:00.974Z,3.96
2023-01-30T21:16:08.083Z,3.97
2023-01-30T21:19:15.189Z,4.05
2023-01-30T21:22:18.019Z,4.17
2023-01-30T21:25:22.921Z,4.16
2023-01-30T21:28:25.566Z,4.12
2023-01-30T21:31:30.851Z,4.29
2023-01-30T21:34:35.217Z,4.36
2023-01-30T21:37:57.913Z,4.20
2023-01-30T21:41:19.076Z,4.24
2023-01-30T21:44:30.932Z,4.13
2023-01-30T21:47:33.683Z,4.21
2023-01-30T21:50:36.880Z,4.15
2023-01-30T21:53:39.955Z,4.13
2023-01-30T21:56:43.823Z,4.03
2023-01-30T21:59:46.389Z,3.98
2023-01-30T22:02:49.995Z,4.16
2023-01-30T22:05:52.876Z,4.08
2023-01-30T22:08:56.848Z,3.93
2023-01-30T22:11:59.880Z,3.95
2023-01-30T22:15:02.836Z,3.97
2023-01-30T22:18:05.818Z,3.96
2023-01-30T22:21:12.288Z,3.89
2023-01-30T22:24:15.368Z,3.85
2023-01-30T22:27:18.181Z,3.87
2023-01-30T22:30:21.216Z,3.89
2023-01-30T22:33:24.044Z,3.95
2023-01-30T22:36:29.278Z,3.94
2023-01-30T22:39:32.129Z,3.92
2023-01-30T22:42:35.243Z,3.98
2023-01-30T22:45:38.272Z,3.95
2023-01-30T22:48:42.127Z,3.94
2023-01-30T22:51:44.992Z,3.93
2023-01-30T22:54:47.826Z,3.99
2023-01-30T22:57:50.637Z,4.19
2023-01-30T23:00:53.475Z,4.20
2023-01-30T23:03:59.856Z,4.11
2023-01-30T23:07:02.795Z,4.07
2023-01-30T23:10:06.046Z,4.01
2023-01-30T23:13:08.992Z,4.16
2023-01-30T23:16:13.359Z,4.04
2023-01-30T23:19:16.157Z,4.16
2023-01-30T23:22:19.066Z,4.25
2023-01-30T23:25:22.244Z,4.10
2023-01-30T23:28:25.178Z,4.28
2023-01-30T23:31:29.115Z,4.35
2023-01-30T23:34:31.932Z,4.27
2023-01-30T23:38:06.920Z,4.25
2023-01-30T23:41:10.576Z,4.33
2023-01-30T23:44:13.440Z,4.30
2023-01-30T23:47:16.559Z,4.35
2023-01-30T23:50:19.788Z,4.26
2023-01-30T23:53:22.704Z,4.24
2023-01-30T23:56:27.912Z,4.20
2023-01-30T23:59:31.002Z,4.16
